Terminal Aerodrome Forecast
Issued by NWS

Home | Current Version | Previous Version | Text Only | Print | Product List | Glossary On
Versions: 1 2 3 4 5 6 7 8 9 10 11 12 13 14 15 16 17 18 19 20 21 22 23 24 25 26 27 28 29 30 31 32 33
000
FTUS41 KBUF 161100
TAFJHW
TAF
KJHW 161120Z 1612/1712 29008KT P6SM FEW040 FEW250
     FM161500 35005KT P6SM FEW050 FEW250
     FM162000 03006KT P6SM FEW050 FEW250
     FM170000 06006KT P6SM FEW250
     FM170300 09007KT P6SM SCT250
     FM170600 14009KT P6SM SCT250
      AMD LTD TO CLD VIS AND WIND=

USA.gov is the U.S. government's official web portal to all federal, state and local government web resources and services.